createdAt,value
2017-11-27T00:01:31.799Z,127.0
2017-11-27T00:11:28.060Z,139.4
2017-11-27T00:21:32.254Z,146.8
2017-11-27T00:31:31.878Z,129.0
2017-11-27T00:41:32.174Z,141.0
2017-11-27T01:01:53.106Z,151.1
2017-11-27T01:11:32.160Z,138.9
2017-11-27T01:31:47.549Z,166.8
2017-11-27T01:41:34.048Z,176.7
2017-11-27T01:51:33.499Z,167.0
2017-11-27T02:01:33.715Z,179.4
2017-11-27T02:11:32.308Z,157.6
2017-11-27T02:22:12.499Z,157.8
2017-11-27T02:31:32.463Z,147.4
2017-11-27T02:41:33.343Z,146.6
2017-11-27T02:51:32.428Z,149.3
2017-11-27T03:21:27.414Z,150.1
2017-11-27T03:32:12.229Z,144.1
2017-11-27T03:41:37.825Z,133.6
2017-11-27T04:11:26.712Z,110.2
2017-11-27T04:31:31.748Z,118.3
2017-11-27T04:41:33.736Z,106.6
2017-11-27T04:51:32.476Z,106.0
2017-11-27T05:02:37.146Z,110.0
2017-11-27T05:12:12.997Z,123.1
2017-11-27T05:21:32.485Z,107.5
2017-11-27T06:01:43.625Z,123.7
2017-11-27T06:22:23.241Z,115.6
2017-11-27T07:02:13.861Z,101.1
2017-11-27T07:11:28.266Z,97.8
2017-11-27T08:12:44.683Z,56.6
2017-11-27T08:32:28.317Z,40.5
2017-11-27T08:42:22.684Z,43.5
2017-11-27T08:51:58.499Z,33.3
2017-11-27T09:31:34.381Z,39.1
2017-11-27T09:52:04.612Z,29.1
2017-11-27T10:01:33.921Z,38.6
2017-11-27T10:11:33.809Z,37.7
2017-11-27T11:31:37.068Z,48.2
2017-11-27T12:02:46.419Z,47.5
2017-11-27T12:11:34.353Z,48.4
2017-11-27T12:31:35.759Z,40.4
2017-11-27T12:41:35.042Z,46.6
2017-11-27T13:11:57.865Z,44.6
2017-11-27T13:42:06.659Z,45.0
2017-11-27T14:02:37.723Z,38.7
2017-11-27T15:02:37.311Z,43.8
2017-11-27T15:11:31.375Z,51.5
2017-11-27T15:24:20.470Z,48.5
2017-11-27T15:51:31.047Z,54.4
2017-11-27T16:21:27.431Z,56.4
2017-11-27T16:32:18.406Z,57.7
2017-11-27T16:41:44.486Z,46.0
2017-11-27T16:51:28.712Z,45.2
2017-11-27T17:01:52.597Z,50.4
2017-11-27T17:11:47.859Z,49.8
2017-11-27T17:31:27.037Z,47.4
2017-11-27T18:02:08.496Z,47.9
2017-11-27T18:12:28.715Z,45.2
2017-11-27T18:51:27.036Z,63.9
2017-11-27T19:22:58.343Z,75.0
2017-11-27T19:31:28.428Z,80.6
2017-11-27T19:41:27.112Z,78.8
2017-11-27T19:51:27.121Z,76.6
2017-11-27T20:01:26.764Z,98.3
2017-11-27T20:11:27.145Z,97.5
2017-11-27T20:21:27.033Z,92.2
2017-11-27T20:31:26.503Z,106.6
2017-11-27T20:41:27.199Z,113.1
2017-11-27T20:51:27.137Z,105.5
2017-11-27T21:01:27.071Z,108.0
2017-11-27T21:11:26.820Z,101.7
2017-11-27T21:21:28.128Z,93.8
2017-11-27T21:31:27.018Z,86.4
2017-11-27T21:41:27.391Z,87.4
2017-11-27T21:51:27.031Z,80.1
2017-11-27T22:01:27.772Z,74.9
2017-11-27T22:11:27.544Z,85.0
2017-11-27T22:21:28.048Z,80.6
2017-11-27T22:31:27.503Z,87.0
2017-11-27T22:41:27.215Z,81.8
2017-11-27T22:51:26.423Z,73.8
2017-11-27T23:01:28.970Z,82.6
2017-11-27T23:11:26.952Z,68.8
2017-11-27T23:21:26.411Z,68.9
2017-11-27T23:31:26.615Z,65.1
2017-11-27T23:41:26.711Z,68.0
2017-11-27T23:51:26.509Z,64.1
